Bei Facebook empfehlenBei Twitter postenGoogle plusPinterest

Das Wetter im Erzgebirge am 30.11.2016

Wetter und Klima am 30.11.2016 Holzhau im Erzgebirge (630m ü.NN)
Letzte gemessene Temperatur und Uhrzeit der Messung23:45:00 Uhr-1.10 °C
Temperatur (Maximum / Höchstwert) und Uhrzeit der Messung12:45:00 Uhr1.20 °C
Temperatur (Minimum / Tiefstwert) und Uhrzeit der Messung05:15:00-9.70 °C
Errechneter Absolutwert der Temperaturschwankungen zwischen Tmin und Tmax des Tages10.90 K
Errechnete Tagesmitteltemperatur-4.07083 °C
Gesamt - Niederschlag des Tages (in flüssiger Form)0.00 Liter / m²
Luftdruck (Maximum / Höchstwert) und Zeitpunkt der Messung00:30:00 Uhr1026.00 hPa
Luftdruck (Minimum / Tiefstwert) und Zeitpunkt der Messung23:00:00 Uhr1018.60 hPa
Errechneter Absolutwert der Luftdruckschwankungen des Tages7.40 hPa
Höchste gemessene Windgeschwindigkeit und Uhrzeit der Messung23:45:00 Uhr0.00 km/h
Errechnete Windhäufigkeit in Relation zu den Messwerten des Tages0.00000 %
Niedrigste Windkühle (Windchill) und Zeitpunkt der Messung05:15:00 Uhr-9.70 °C
Taupunkt (Maximum / Höchstwert) und Uhrzeit der Messung23:45:00 Uhr-1.90 °C
Taupunkt (Minimum / Tiefstwert) und Uhrzeit der Messung01:15:00-11.10 °C
Anzahl der automatisch eingelesenen Messwerte 96

Detaillierte Wetter- und Klima- Messwerte für den 30.11.2016 in Holzhau im Erzgebirge (630m ü.NN)
ZeitTemperaturLuftdruckRel. LuftfeuchteWindWindrichtungWindchillTaupunktNiederschlag l/m²
23:45:00-1.10 °C1018.80 hPa95.00 %-1.90 °C 
23:30:00-1.10 °C1018.70 hPa94.00 %-2.00 °C 
23:15:00-1.20 °C1018.80 hPa94.00 %-2.10 °C 
23:00:00-1.40 °C1018.60 hPa94.00 %-2.30 °C 
22:45:00-1.50 °C1018.70 hPa94.00 %-2.40 °C 
22:30:00-1.60 °C1018.80 hPa94.00 %-2.50 °C 
22:15:00-1.60 °C1018.80 hPa94.00 %-2.50 °C 
22:00:00-1.70 °C1018.70 hPa93.00 %-2.80 °C 
21:45:00-1.80 °C1018.90 hPa93.00 %-2.90 °C 
21:30:00-1.90 °C1019.10 hPa93.00 %-3.00 °C 
21:15:00-1.90 °C1019.40 hPa93.00 %-3.00 °C 
21:00:00-1.90 °C1019.40 hPa93.00 %-3.00 °C 
20:45:00-1.90 °C1019.50 hPa93.00 %-3.00 °C 
20:30:00-1.90 °C1019.50 hPa92.00 %-3.20 °C 
20:15:00-1.90 °C1019.50 hPa92.00 %-3.20 °C 
20:00:00-1.90 °C1019.50 hPa91.00 %-3.30 °C 
19:45:00-1.80 °C1019.40 hPa91.00 %-3.20 °C 
19:30:00-1.80 °C1019.40 hPa91.00 %-3.20 °C 
19:15:00-1.80 °C1019.30 hPa90.00 %-3.40 °C 
19:00:00-1.80 °C1019.50 hPa89.00 %-3.60 °C 
18:45:00-1.80 °C1019.60 hPa89.00 %-3.60 °C 
18:30:00-1.80 °C1019.60 hPa88.00 %-3.70 °C 
18:15:00-1.80 °C1019.60 hPa87.00 %-3.90 °C 
18:00:00-1.80 °C1019.70 hPa86.00 %-4.10 °C 
17:45:00-1.80 °C1019.60 hPa85.00 %-4.20 °C 
17:30:00-1.60 °C1020.10 hPa84.00 %-4.20 °C 
17:15:00-1.50 °C1019.80 hPa82.00 %-4.50 °C 
17:00:00-1.30 °C1020.00 hPa79.00 %-4.80 °C 
16:45:00-1.00 °C1020.00 hPa76.00 %-5.10 °C 
16:30:00-0.50 °C1020.30 hPa74.00 %-5.00 °C 
16:15:00-0.10 °C1020.20 hPa70.00 %-5.50 °C 
16:00:000.00 °C1020.20 hPa70.00 %-5.40 °C 
15:45:000.00 °C1020.30 hPa69.00 %-5.60 °C 
15:30:000.00 °C1020.20 hPa69.00 %-5.60 °C 
15:15:00-0.10 °C1020.20 hPa68.00 %-5.90 °C 
15:00:00-0.10 °C1020.20 hPa67.00 %-6.10 °C 
14:45:000.10 °C1020.50 hPa67.00 %-5.30 °C 
14:30:000.10 °C1020.70 hPa65.00 %-5.70 °C 
14:15:000.30 °C1020.70 hPa64.00 %-5.70 °C 
14:00:000.40 °C1021.00 hPa63.00 %-5.80 °C 
13:45:000.50 °C1021.20 hPa62.00 %-5.90 °C 
13:30:000.60 °C1021.40 hPa60.00 %-6.30 °C 
13:15:000.90 °C1021.60 hPa57.00 %-6.60 °C 
13:00:001.10 °C1021.80 hPa55.00 %-6.90 °C 
12:45:001.20 °C1021.80 hPa53.00 %-7.30 °C 
12:30:001.10 °C1021.90 hPa52.00 %-7.60 °C 
12:15:000.80 °C1021.90 hPa53.00 %-7.70 °C 
12:00:000.40 °C1022.20 hPa56.00 %-7.30 °C 
11:45:000.20 °C1022.30 hPa59.00 %-6.80 °C 
11:30:00-0.20 °C1022.40 hPa62.00 %-7.30 °C 
11:15:00-0.40 °C1022.80 hPa64.00 %-7.10 °C 
11:00:00-0.60 °C1022.90 hPa67.00 %-6.60 °C 
10:45:00-0.90 °C1022.90 hPa71.00 %-6.00 °C 
10:30:00-1.40 °C1023.10 hPa75.00 %-5.70 °C 
10:15:00-1.90 °C1022.90 hPa78.00 %-5.60 °C 
10:00:00-2.60 °C1023.00 hPa82.00 %-5.60 °C 
09:45:00-3.10 °C1023.10 hPa85.00 %-5.50 °C 
09:30:00-3.60 °C1023.10 hPa87.00 %-5.70 °C 
09:15:00-4.20 °C1023.30 hPa89.00 %-5.90 °C 
09:00:00-4.70 °C1023.30 hPa90.00 %-6.30 °C 
08:45:00-5.30 °C1023.20 hPa91.00 %-6.70 °C 
08:30:00-5.90 °C1023.40 hPa91.00 %-7.30 °C 
08:15:00-6.40 °C1023.60 hPa92.00 %-7.60 °C 
08:00:00-6.80 °C1023.40 hPa92.00 %-8.00 °C 
07:45:00-7.40 °C1023.40 hPa92.00 %-8.60 °C 
07:30:00-8.60 °C1023.20 hPa92.00 %-9.80 °C 
07:15:00-9.30 °C1023.10 hPa92.00 %-10.50 °C 
07:00:00-9.30 °C1023.40 hPa92.00 %-10.50 °C 
06:45:00-9.20 °C1023.80 hPa92.00 %-10.40 °C 
06:30:00-9.30 °C1023.80 hPa92.00 %-10.50 °C 
06:15:00-9.20 °C1023.80 hPa91.00 %-10.50 °C 
06:00:00-9.20 °C1023.90 hPa92.00 %-10.40 °C 
05:45:00-9.20 °C1024.10 hPa92.00 %-10.40 °C 
05:30:00-9.30 °C1024.20 hPa92.00 %-10.50 °C 
05:15:00-9.70 °C1024.50 hPa91.00 %-11.00 °C 
05:00:00-9.70 °C1024.70 hPa91.00 %-11.00 °C 
04:45:00-9.70 °C1024.60 hPa91.00 %-11.00 °C 
04:30:00-9.70 °C1024.70 hPa91.00 %-11.00 °C 
04:15:00-9.60 °C1024.90 hPa91.00 %-10.90 °C 
04:00:00-9.60 °C1025.00 hPa91.00 %-10.90 °C 
03:45:00-9.60 °C1024.80 hPa91.00 %-10.90 °C 
03:30:00-9.70 °C1024.90 hPa91.00 %-11.00 °C 
03:15:00-9.70 °C1024.90 hPa91.00 %-11.00 °C 
03:00:00-9.70 °C1025.10 hPa91.00 %-11.00 °C 
02:45:00-9.70 °C1025.30 hPa91.00 %-11.00 °C 
02:30:00-9.70 °C1025.50 hPa91.00 %-11.00 °C 
02:15:00-9.70 °C1025.50 hPa91.00 %-11.00 °C 
02:00:00-9.60 °C1025.50 hPa91.00 %-10.90 °C 
01:45:00-9.70 °C1025.60 hPa91.00 %-11.00 °C 
01:30:00-9.60 °C1025.60 hPa91.00 %-10.90 °C 
01:15:00-9.60 °C1025.70 hPa90.00 %-11.10 °C 
01:00:00-9.40 °C1025.70 hPa91.00 %-10.70 °C 
00:45:00-9.40 °C1025.70 hPa91.00 %-10.70 °C 
00:30:00-9.50 °C1026.00 hPa90.00 %-11.00 °C 
00:15:00-9.60 °C1026.00 hPa90.00 %-11.10 °C 
00:00:00-9.60 °C1026.00 hPa90.00 %-11.10 °C 

Permanenter Link zu dieser Seite: Wetter im Erzgebirge am 30.11.2016
Performance-Info: Die Erstellung der Seite / Statistik(en) / Tabelle(n) erforderte 5 Datenbankserver-Abfrage(n) und dauerte 100 Millisekunden. (Dieser Messwert ist von der Gesamt-Auslastung des Servers abhängig.)
Erzgebirge - Wetter | Erzgebirge - Wetter (Mobilgeräte) | Komplette Klimadatenbank